createdAt,value
2023-02-15T00:02:05.139Z,41.72
2023-02-15T00:04:46.430Z,41.15
2023-02-15T00:07:14.952Z,42.70
2023-02-15T00:09:42.230Z,42.78
2023-02-15T00:12:10.690Z,44.20
2023-02-15T00:14:39.331Z,40.83
2023-02-15T00:17:06.685Z,41.25
2023-02-15T00:19:33.989Z,43.38
2023-02-15T00:22:02.004Z,42.78
2023-02-15T00:24:29.317Z,42.50
2023-02-15T00:26:56.736Z,43.58
2023-02-15T00:29:24.050Z,45.20
2023-02-15T00:31:53.137Z,43.42
2023-02-15T00:34:21.594Z,43.90
2023-02-15T00:36:49.297Z,44.38
2023-02-15T00:39:16.878Z,44.88
2023-02-15T00:41:44.307Z,45.47
2023-02-15T00:44:11.659Z,41.55
2023-02-15T00:46:38.968Z,46.47
2023-02-15T00:49:07.667Z,47.38
2023-02-15T00:51:35.093Z,44.05
2023-02-15T00:54:02.359Z,42.78
2023-02-15T00:56:29.722Z,46.40
2023-02-15T00:58:57.092Z,48.78
2023-02-15T01:01:24.572Z,46.00
2023-02-15T01:03:51.923Z,46.67
2023-02-15T01:06:20.664Z,48.80
2023-02-15T01:08:48.153Z,48.53
2023-02-15T01:11:22.562Z,48.58
2023-02-15T01:13:50.709Z,47.03
2023-02-15T01:16:18.354Z,48.70
2023-02-15T01:18:45.772Z,45.92
2023-02-15T01:21:14.711Z,49.22
2023-02-15T01:23:43.826Z,46.03
2023-02-15T01:26:11.419Z,48.17
2023-02-15T01:28:39.018Z,49.33
2023-02-15T01:31:07.253Z,50.28
2023-02-15T01:33:35.199Z,48.80
2023-02-15T01:36:03.424Z,49.45
2023-02-15T01:38:31.141Z,49.97
2023-02-15T01:41:20.234Z,48.95
2023-02-15T01:43:48.896Z,48.95
2023-02-15T01:46:17.813Z,49.47
2023-02-15T01:48:46.650Z,47.00
2023-02-15T01:51:14.667Z,47.65
2023-02-15T01:53:44.787Z,48.95
2023-02-15T01:56:15.864Z,48.47
2023-02-15T01:58:44.428Z,48.65
2023-02-15T02:01:11.894Z,47.03
2023-02-15T02:03:44.331Z,48.78
2023-02-15T02:06:11.948Z,49.30
2023-02-15T02:08:39.474Z,46.42
2023-02-15T02:11:11.515Z,52.28
2023-02-15T02:13:40.267Z,47.53
2023-02-15T02:16:11.314Z,50.25
2023-02-15T02:18:43.452Z,48.83
2023-02-15T02:21:27.000Z,48.72
2023-02-15T02:24:03.097Z,47.83
2023-02-15T02:26:37.848Z,52.63
2023-02-15T02:29:16.379Z,47.17
2023-02-15T02:31:54.945Z,47.95
2023-02-15T02:34:27.389Z,49.17
2023-02-15T02:36:57.804Z,49.22
2023-02-15T02:39:32.265Z,46.42
2023-02-15T02:42:04.021Z,49.10
2023-02-15T02:44:34.995Z,49.95
2023-02-15T02:47:06.126Z,48.50
2023-02-15T02:49:35.943Z,45.15
2023-02-15T02:52:04.110Z,48.22
2023-02-15T02:54:31.998Z,47.58
2023-02-15T02:57:01.229Z,47.30
2023-02-15T02:59:30.228Z,46.15
2023-02-15T03:01:58.817Z,48.53
2023-02-15T03:04:28.468Z,49.65
2023-02-15T03:06:59.850Z,50.95
2023-02-15T03:09:42.362Z,47.20
2023-02-15T03:12:10.428Z,47.17
2023-02-15T03:14:37.783Z,45.42
2023-02-15T03:17:06.338Z,46.75
2023-02-15T03:19:35.207Z,44.65
2023-02-15T03:22:09.960Z,51.13
2023-02-15T03:24:41.345Z,47.88
2023-02-15T03:27:11.088Z,46.58
2023-02-15T03:29:39.022Z,48.15
2023-02-15T03:32:07.639Z,44.70
2023-02-15T03:34:35.312Z,47.50
2023-02-15T03:37:08.290Z,49.30
2023-02-15T03:39:38.114Z,48.72
2023-02-15T03:42:08.304Z,49.70
2023-02-15T03:44:38.383Z,51.78
2023-02-15T03:47:07.512Z,50.80
2023-02-15T03:49:38.918Z,48.50
2023-02-15T03:52:09.040Z,50.58
2023-02-15T03:54:46.904Z,44.10
2023-02-15T03:57:33.464Z,43.75
2023-02-15T04:00:19.091Z,47.55
2023-02-15T04:02:52.107Z,49.08
2023-02-15T04:05:19.477Z,52.00
2023-02-15T04:07:48.124Z,46.33
2023-02-15T04:10:33.224Z,47.60
2023-02-15T04:13:00.511Z,47.58
2023-02-15T04:15:45.734Z,49.00
2023-02-15T04:18:13.051Z,49.58
2023-02-15T04:20:58.078Z,50.97
2023-02-15T04:23:44.215Z,51.28
2023-02-15T04:26:11.525Z,52.50
2023-02-15T04:28:38.838Z,48.35
2023-02-15T04:31:06.190Z,47.05
2023-02-15T04:33:33.531Z,46.38
2023-02-15T04:36:01.302Z,49.85
2023-02-15T04:38:30.110Z,50.65
2023-02-15T04:40:57.411Z,48.08
2023-02-15T04:43:24.687Z,49.50
2023-02-15T04:45:52.534Z,50.22
2023-02-15T04:48:19.954Z,49.53
2023-02-15T04:50:47.292Z,52.10
2023-02-15T04:53:14.637Z,51.40
2023-02-15T04:55:43.248Z,51.38
2023-02-15T04:58:10.578Z,51.50
2023-02-15T05:00:37.909Z,50.28
2023-02-15T05:03:05.261Z,48.80
2023-02-15T05:05:32.657Z,52.55
2023-02-15T05:07:59.956Z,48.97
2023-02-15T05:10:27.246Z,51.65
2023-02-15T05:12:55.936Z,49.78
2023-02-15T05:15:23.219Z,50.22
2023-02-15T05:17:50.585Z,49.53
2023-02-15T05:20:19.332Z,48.85
2023-02-15T05:22:46.701Z,50.53
2023-02-15T05:25:34.084Z,48.50
2023-02-15T05:28:21.290Z,48.38
2023-02-15T05:30:49.360Z,50.53
2023-02-15T05:33:21.767Z,50.95
2023-02-15T05:35:49.158Z,48.90
2023-02-15T05:38:16.501Z,47.30
2023-02-15T05:40:43.786Z,49.65
2023-02-15T05:43:12.421Z,47.88
2023-02-15T05:45:39.725Z,47.85
2023-02-15T05:48:07.008Z,45.95
2023-02-15T05:50:34.355Z,50.13
2023-02-15T05:53:01.624Z,51.30
2023-02-15T05:55:28.975Z,47.75
2023-02-15T05:57:56.269Z,46.03
2023-02-15T06:00:26.178Z,46.17
2023-02-15T06:02:53.509Z,45.88
2023-02-15T06:05:20.884Z,46.20
2023-02-15T06:07:48.191Z,48.10
2023-02-15T06:10:15.533Z,42.15
2023-02-15T06:12:42.827Z,39.28
2023-02-15T06:15:10.558Z,47.05
2023-02-15T06:17:39.204Z,45.47
2023-02-15T06:20:07.119Z,49.88
2023-02-15T06:22:34.504Z,47.22
2023-02-15T06:25:01.780Z,44.85
2023-02-15T06:27:29.084Z,47.08
2023-02-15T06:29:56.440Z,47.60
2023-02-15T06:32:23.807Z,45.53
2023-02-15T06:34:52.502Z,48.90
2023-02-15T06:37:19.842Z,40.83
2023-02-15T06:39:47.140Z,44.67
2023-02-15T06:42:14.588Z,42.25
2023-02-15T06:44:41.923Z,44.60
2023-02-15T06:47:09.198Z,43.13
2023-02-15T06:49:36.499Z,49.75
2023-02-15T06:52:05.608Z,48.88
2023-02-15T06:54:32.949Z,44.38
2023-02-15T06:57:00.266Z,44.85
2023-02-15T06:59:27.691Z,45.63
2023-02-15T07:01:55.035Z,44.67
2023-02-15T07:04:22.373Z,46.10
2023-02-15T07:06:50.752Z,48.33
2023-02-15T07:09:20.188Z,45.15
2023-02-15T07:12:05.156Z,45.88
2023-02-15T07:14:32.771Z,46.47
2023-02-15T07:17:00.522Z,44.88
2023-02-15T07:19:27.978Z,43.30
2023-02-15T07:21:55.348Z,41.05
2023-02-15T07:24:24.048Z,45.70
2023-02-15T07:26:51.330Z,45.45
2023-02-15T07:29:18.846Z,42.03
2023-02-15T07:31:46.300Z,44.63
2023-02-15T07:34:13.993Z,42.42
2023-02-15T07:36:41.366Z,43.13
2023-02-15T07:39:08.643Z,39.90
2023-02-15T07:41:37.367Z,43.13
2023-02-15T07:44:04.698Z,43.55
2023-02-15T07:46:32.338Z,40.53
2023-02-15T07:48:59.842Z,42.53
2023-02-15T07:51:27.354Z,40.13
2023-02-15T07:53:54.787Z,31.70
2023-02-15T07:56:22.127Z,35.17
2023-02-15T07:58:53.613Z,35.92
2023-02-15T08:01:21.409Z,34.13
2023-02-15T08:03:48.792Z,33.17
2023-02-15T08:06:16.337Z,33.05
2023-02-15T08:08:44.102Z,28.40
2023-02-15T08:11:33.408Z,28.27
2023-02-15T08:14:03.530Z,28.50
2023-02-15T08:16:32.246Z,27.50
2023-02-15T08:19:00.261Z,29.02
2023-02-15T08:21:28.433Z,24.02
2023-02-15T08:23:55.777Z,26.08
2023-02-15T08:26:23.242Z,26.35
2023-02-15T08:28:51.422Z,26.92
2023-02-15T08:31:20.627Z,25.17
2023-02-15T08:33:48.406Z,23.98
2023-02-15T08:36:16.506Z,24.35
2023-02-15T08:38:44.281Z,23.88
2023-02-15T08:41:12.562Z,26.42
2023-02-15T08:43:40.326Z,24.65
2023-02-15T08:46:07.707Z,25.02
2023-02-15T08:48:36.495Z,23.13
2023-02-15T08:51:11.551Z,22.75
2023-02-15T08:53:39.378Z,21.63
2023-02-15T08:56:07.218Z,20.63
2023-02-15T08:58:34.729Z,22.40
2023-02-15T09:01:03.153Z,20.98
2023-02-15T09:03:30.706Z,21.33
2023-02-15T09:06:03.223Z,20.67
2023-02-15T09:08:30.667Z,21.08
2023-02-15T09:11:06.380Z,20.52
2023-02-15T09:13:33.686Z,22.00
2023-02-15T09:16:01.474Z,22.33
2023-02-15T09:18:29.442Z,20.00
2023-02-15T09:20:57.170Z,18.08
2023-02-15T09:23:27.226Z,20.30
2023-02-15T09:25:54.785Z,19.83
2023-02-15T09:28:22.120Z,19.80
2023-02-15T09:30:49.477Z,20.38
2023-02-15T09:33:16.766Z,18.98
2023-02-15T09:35:44.196Z,20.20
2023-02-15T09:38:12.866Z,19.70
2023-02-15T09:40:48.633Z,19.63
2023-02-15T09:43:21.634Z,17.45
2023-02-15T09:45:56.899Z,20.13
2023-02-15T09:48:32.393Z,18.70
2023-02-15T09:51:05.484Z,20.80
2023-02-15T09:53:41.196Z,19.83
2023-02-15T09:56:16.378Z,18.70
2023-02-15T09:58:47.498Z,19.38
2023-02-15T10:01:20.366Z,20.25
2023-02-15T10:03:54.082Z,18.83
2023-02-15T10:06:28.145Z,19.50
2023-02-15T10:09:08.516Z,18.20
2023-02-15T10:11:51.552Z,17.52
2023-02-15T10:14:39.623Z,16.02
2023-02-15T10:17:15.974Z,17.77
2023-02-15T10:19:48.878Z,17.08
2023-02-15T10:22:23.855Z,20.08
2023-02-15T10:25:02.704Z,17.67
2023-02-15T10:27:31.106Z,17.08
2023-02-15T10:30:05.874Z,15.70
2023-02-15T10:35:03.263Z,16.77
2023-02-15T10:37:42.080Z,16.10
2023-02-15T10:40:11.695Z,18.05
2023-02-15T10:42:43.571Z,16.40
2023-02-15T10:45:20.001Z,17.40
2023-02-15T10:47:55.888Z,17.00
2023-02-15T10:50:28.999Z,16.38
2023-02-15T10:53:02.120Z,15.52
2023-02-15T10:55:36.244Z,16.63
2023-02-15T10:58:08.391Z,16.98
2023-02-15T11:00:40.008Z,15.73
2023-02-15T11:03:14.381Z,16.08
2023-02-15T11:05:49.896Z,16.55
2023-02-15T11:08:17.391Z,16.38
2023-02-15T11:10:47.157Z,17.20
2023-02-15T11:13:16.542Z,15.95
2023-02-15T11:15:47.489Z,16.55
2023-02-15T11:18:16.619Z,15.65
2023-02-15T11:20:47.137Z,16.15
2023-02-15T11:23:17.036Z,16.17
2023-02-15T11:25:45.812Z,16.55
2023-02-15T11:28:19.191Z,14.55
2023-02-15T11:30:52.945Z,14.93
2023-02-15T11:33:23.201Z,16.08
2023-02-15T11:35:52.569Z,15.45
2023-02-15T11:38:22.370Z,16.30
2023-02-15T11:40:50.824Z,15.57
2023-02-15T11:43:20.982Z,16.52
2023-02-15T11:45:49.593Z,16.08
2023-02-15T11:48:18.693Z,15.82
2023-02-15T11:50:47.081Z,16.65
2023-02-15T11:53:15.589Z,16.70
2023-02-15T11:55:43.737Z,14.65
2023-02-15T11:58:16.407Z,15.27
2023-02-15T12:00:45.099Z,15.60
2023-02-15T12:03:17.694Z,13.40
2023-02-15T12:05:47.252Z,15.88
2023-02-15T12:08:18.019Z,15.07
2023-02-15T12:10:52.677Z,15.75
2023-02-15T12:13:21.146Z,16.17
2023-02-15T12:15:50.025Z,15.13
2023-02-15T12:18:21.317Z,15.85
2023-02-15T12:20:48.953Z,14.38
2023-02-15T12:23:17.449Z,14.50
2023-02-15T12:25:52.065Z,16.20
2023-02-15T12:28:24.952Z,14.73
2023-02-15T12:30:52.880Z,15.30
2023-02-15T12:33:25.669Z,15.43
2023-02-15T12:35:58.625Z,15.88
2023-02-15T12:38:26.939Z,15.32
2023-02-15T12:40:59.023Z,15.27
2023-02-15T12:43:27.450Z,13.85
2023-02-15T12:45:54.874Z,15.65
2023-02-15T12:48:23.514Z,15.70
2023-02-15T12:50:54.690Z,15.82
2023-02-15T12:53:24.564Z,14.68
2023-02-15T12:55:52.925Z,15.45
2023-02-15T12:58:21.411Z,15.65
2023-02-15T13:00:48.912Z,14.88
2023-02-15T13:03:18.680Z,15.07
2023-02-15T13:05:49.651Z,17.38
2023-02-15T13:08:18.257Z,14.88
2023-02-15T13:10:54.845Z,15.00
2023-02-15T13:13:23.639Z,16.13
2023-02-15T13:15:52.488Z,15.95
2023-02-15T13:18:23.660Z,15.93
2023-02-15T13:20:52.490Z,12.70
2023-02-15T13:23:25.745Z,15.25
2023-02-15T13:25:53.065Z,15.27
2023-02-15T13:28:22.442Z,14.73
2023-02-15T13:30:49.997Z,15.18
2023-02-15T13:33:19.690Z,15.32
2023-02-15T13:35:52.037Z,13.88
2023-02-15T13:38:40.302Z,15.15
2023-02-15T13:41:13.716Z,14.55
2023-02-15T13:43:44.183Z,13.85
2023-02-15T13:46:16.626Z,13.90
2023-02-15T13:48:51.321Z,14.43
2023-02-15T13:51:21.149Z,14.55
2023-02-15T13:54:10.562Z,15.00
2023-02-15T13:56:45.244Z,14.35
2023-02-15T13:59:24.243Z,14.70
2023-02-15T14:01:53.399Z,14.68
2023-02-15T14:04:35.626Z,13.57
2023-02-15T14:07:22.516Z,14.68
2023-02-15T14:09:52.597Z,15.48
2023-02-15T14:12:33.953Z,14.00
2023-02-15T14:15:09.409Z,14.57
2023-02-15T14:17:42.234Z,14.00
2023-02-15T14:20:16.831Z,15.25
2023-02-15T14:22:46.142Z,14.38
2023-02-15T14:25:19.894Z,14.40
2023-02-15T14:27:55.042Z,12.90
2023-02-15T14:30:24.579Z,14.52
2023-02-15T14:32:53.384Z,14.05
2023-02-15T14:35:21.901Z,14.00
2023-02-15T14:37:52.628Z,14.27
2023-02-15T14:40:51.930Z,14.63
2023-02-15T14:43:26.122Z,14.15
2023-02-15T14:45:56.144Z,14.15
2023-02-15T14:48:26.443Z,14.45
2023-02-15T14:50:53.765Z,13.43
2023-02-15T14:53:36.798Z,15.20
2023-02-15T14:56:21.881Z,14.35
2023-02-15T14:59:15.161Z,15.55
2023-02-15T15:01:42.989Z,14.32
2023-02-15T15:04:11.689Z,14.57
2023-02-15T15:06:40.334Z,13.48
2023-02-15T15:09:12.987Z,15.13
2023-02-15T15:11:44.908Z,14.02
2023-02-15T15:14:33.897Z,15.50
2023-02-15T15:17:01.968Z,16.48
2023-02-15T15:19:52.746Z,16.35
2023-02-15T15:22:20.572Z,14.52
2023-02-15T15:24:49.236Z,15.07
2023-02-15T15:27:35.253Z,15.40
2023-02-15T15:30:24.931Z,14.57
2023-02-15T15:32:56.951Z,15.45
2023-02-15T15:35:26.792Z,14.63
2023-02-15T15:38:05.163Z,15.45
2023-02-15T15:41:05.223Z,14.63
2023-02-15T15:43:51.479Z,14.90
2023-02-15T15:46:26.368Z,14.38
2023-02-15T15:51:22.211Z,13.65
2023-02-15T15:53:53.850Z,14.05
2023-02-15T15:56:22.130Z,14.02
2023-02-15T15:58:51.879Z,14.05
2023-02-15T16:01:25.815Z,14.63
2023-02-15T16:03:55.800Z,13.97
2023-02-15T16:06:30.717Z,14.25
2023-02-15T16:08:58.415Z,14.75
2023-02-15T16:11:26.957Z,15.27
2023-02-15T16:13:54.744Z,14.75
2023-02-15T16:16:23.120Z,14.50
2023-02-15T16:18:50.552Z,13.73
2023-02-15T16:21:21.506Z,13.63
2023-02-15T16:23:56.265Z,14.93
2023-02-15T16:28:52.458Z,14.63
2023-02-15T16:31:20.443Z,14.30
2023-02-15T16:33:48.080Z,16.35
2023-02-15T16:36:23.276Z,17.25
2023-02-15T16:39:09.361Z,15.85
2023-02-15T16:41:36.864Z,15.95
2023-02-15T16:44:07.145Z,15.88
2023-02-15T16:46:37.245Z,16.27
2023-02-15T16:49:07.753Z,16.27
2023-02-15T16:51:36.833Z,14.93
2023-02-15T16:54:07.145Z,16.17
2023-02-15T16:56:34.968Z,16.20
2023-02-15T16:59:02.977Z,17.05
2023-02-15T17:01:31.600Z,16.95
2023-02-15T17:04:13.249Z,15.50
2023-02-15T17:06:41.982Z,16.15
2023-02-15T17:09:19.172Z,16.00
2023-02-15T17:11:46.511Z,16.08
2023-02-15T17:14:16.185Z,15.98
2023-02-15T17:16:49.763Z,15.63
2023-02-15T17:19:18.331Z,15.73
2023-02-15T17:21:50.620Z,17.05
2023-02-15T17:24:18.951Z,16.95
2023-02-15T17:26:50.995Z,15.45
2023-02-15T17:29:24.173Z,15.07
2023-02-15T17:31:52.836Z,17.27
2023-02-15T17:34:35.072Z,18.40
2023-02-15T17:37:04.783Z,18.30
2023-02-15T17:39:34.133Z,16.25
2023-02-15T17:42:01.447Z,16.08
2023-02-15T17:44:28.734Z,16.38
2023-02-15T17:46:56.023Z,17.33
2023-02-15T17:49:25.417Z,16.92
2023-02-15T17:51:52.781Z,17.90
2023-02-15T17:54:39.009Z,19.20
2023-02-15T17:57:07.367Z,18.25
2023-02-15T17:59:34.672Z,22.05
2023-02-15T18:02:19.731Z,28.20
2023-02-15T18:05:04.592Z,20.40
2023-02-15T18:07:49.839Z,19.15
2023-02-15T18:10:37.217Z,18.40
2023-02-15T18:13:04.780Z,18.58
2023-02-15T18:15:32.228Z,19.48
2023-02-15T18:17:59.579Z,19.00
2023-02-15T18:20:29.725Z,18.38
2023-02-15T18:22:57.072Z,18.88
2023-02-15T18:25:25.868Z,18.80
2023-02-15T18:27:55.201Z,19.17
2023-02-15T18:30:23.592Z,18.73
2023-02-15T18:32:52.711Z,19.30
2023-02-15T18:35:21.058Z,19.52
2023-02-15T18:37:48.497Z,19.95
2023-02-15T18:40:16.628Z,20.45
2023-02-15T18:42:47.761Z,20.88
2023-02-15T18:45:16.798Z,21.02
2023-02-15T18:47:44.259Z,20.92
2023-02-15T18:50:12.477Z,20.17
2023-02-15T18:52:40.020Z,19.77
2023-02-15T18:55:16.924Z,20.38
2023-02-15T18:57:45.811Z,19.77
2023-02-15T19:00:17.423Z,20.55
2023-02-15T19:02:45.308Z,24.15
2023-02-15T19:05:13.162Z,28.30
2023-02-15T19:07:40.745Z,21.48
2023-02-15T19:10:09.324Z,20.58
2023-02-15T19:12:36.722Z,21.08
2023-02-15T19:15:05.809Z,21.65
2023-02-15T19:17:33.176Z,21.90
2023-02-15T19:20:00.640Z,21.58
2023-02-15T19:22:29.029Z,22.13
2023-02-15T19:24:57.559Z,22.02
2023-02-15T19:27:27.377Z,22.60
2023-02-15T19:29:54.856Z,20.75
2023-02-15T19:32:23.573Z,23.25
2023-02-15T19:34:50.955Z,20.67
2023-02-15T19:37:23.186Z,20.35
2023-02-15T19:39:50.997Z,22.42
2023-02-15T19:42:19.627Z,21.85
2023-02-15T19:44:47.045Z,24.17
2023-02-15T19:47:14.606Z,23.83
2023-02-15T19:49:43.329Z,22.27
2023-02-15T19:52:15.776Z,23.25
2023-02-15T19:54:45.265Z,24.02
2023-02-15T19:57:13.669Z,23.17
2023-02-15T19:59:41.664Z,23.67
2023-02-15T20:02:13.794Z,24.00
2023-02-15T20:04:41.433Z,30.55
2023-02-15T20:07:14.545Z,30.20
2023-02-15T20:09:43.334Z,24.83
2023-02-15T20:12:17.226Z,24.45
2023-02-15T20:14:44.551Z,21.50
2023-02-15T20:17:12.048Z,22.73
2023-02-15T20:19:40.945Z,22.58
2023-02-15T20:22:12.148Z,23.25
2023-02-15T20:24:39.607Z,22.00
2023-02-15T20:27:07.146Z,23.50
2023-02-15T20:29:34.479Z,23.48
2023-02-15T20:32:03.360Z,22.10
2023-02-15T20:34:30.733Z,20.50
2023-02-15T20:36:58.750Z,24.30
2023-02-15T20:39:27.891Z,22.40
2023-02-15T20:41:55.269Z,25.88
2023-02-15T20:44:23.784Z,26.13
2023-02-15T20:46:52.056Z,24.95
2023-02-15T20:49:19.668Z,23.80
2023-02-15T20:51:47.878Z,26.75
2023-02-15T20:54:17.038Z,27.73
2023-02-15T20:56:46.062Z,22.95
2023-02-15T20:59:20.062Z,23.00
2023-02-15T21:01:47.516Z,22.00
2023-02-15T21:04:17.960Z,23.60
2023-02-15T21:06:45.288Z,23.30
2023-02-15T21:09:13.731Z,26.45
2023-02-15T21:11:41.523Z,28.88
2023-02-15T21:14:16.342Z,31.80
2023-02-15T21:19:12.839Z,26.85
2023-02-15T21:21:40.256Z,27.77
2023-02-15T21:24:07.910Z,25.25
2023-02-15T21:26:35.241Z,28.58
2023-02-15T21:29:03.782Z,27.88
2023-02-15T21:31:32.573Z,25.52
2023-02-15T21:33:59.910Z,27.15
2023-02-15T21:36:27.286Z,27.50
2023-02-15T21:38:54.615Z,26.23
2023-02-15T21:41:40.358Z,24.42
2023-02-15T21:44:32.818Z,25.92
2023-02-15T21:47:15.462Z,26.55
2023-02-15T21:49:42.763Z,25.40
2023-02-15T21:52:11.598Z,30.35
2023-02-15T21:54:39.211Z,24.88
2023-02-15T21:57:06.910Z,26.38
2023-02-15T21:59:34.270Z,28.50
2023-02-15T22:02:03.250Z,29.83
2023-02-15T22:04:31.336Z,40.55
2023-02-15T22:06:58.857Z,29.92
2023-02-15T22:09:27.510Z,26.90
2023-02-15T22:11:55.554Z,27.38
2023-02-15T22:14:31.670Z,27.35
2023-02-15T22:16:58.980Z,26.13
2023-02-15T22:19:28.011Z,30.10
2023-02-15T22:21:55.363Z,28.85
2023-02-15T22:24:22.649Z,29.77
2023-02-15T22:26:50.002Z,27.98
2023-02-15T22:29:17.967Z,26.20
2023-02-15T22:31:45.667Z,26.60
2023-02-15T22:34:23.708Z,25.77
2023-02-15T22:36:52.457Z,25.42
2023-02-15T22:39:22.052Z,25.27
2023-02-15T22:41:49.734Z,34.33
2023-02-15T22:44:18.380Z,46.13
2023-02-15T22:46:45.662Z,76.72
2023-02-15T22:49:13.490Z,37.95
2023-02-15T22:51:40.872Z,28.08
2023-02-15T22:54:09.490Z,32.83
2023-02-15T22:56:39.666Z,27.70
2023-02-15T22:59:08.241Z,25.30
2023-02-15T23:01:36.720Z,26.83
2023-02-15T23:04:04.369Z,37.33
2023-02-15T23:06:34.128Z,29.65
2023-02-15T23:09:02.083Z,25.17
2023-02-15T23:11:30.841Z,24.83
2023-02-15T23:13:58.137Z,32.25
2023-02-15T23:16:25.471Z,26.38
2023-02-15T23:18:52.809Z,26.40
2023-02-15T23:21:21.062Z,25.48
2023-02-15T23:23:49.682Z,25.75
2023-02-15T23:26:18.050Z,31.73
2023-02-15T23:28:46.929Z,26.80
2023-02-15T23:31:16.966Z,28.13
2023-02-15T23:33:44.357Z,44.53
2023-02-15T23:36:24.453Z,43.13
2023-02-15T23:38:51.762Z,37.20
2023-02-15T23:41:20.036Z,34.30
2023-02-15T23:43:50.137Z,27.90
2023-02-15T23:46:22.941Z,27.88
2023-02-15T23:48:50.337Z,27.40
2023-02-15T23:51:18.166Z,27.20
2023-02-15T23:53:45.493Z,27.73
2023-02-15T23:56:13.658Z,30.55
2023-02-15T23:58:42.107Z,27.48
